Time;durP1;ratioP1;P1;durP2;ratioP2;P2;SDS_P1;SDS_P2;PMS_P1;PMS_P2;Temp;Humidity;BMP_temperature;BMP_pressure;BME280_temperature;BME280_humidity;BME280_pressure;Samples;Min_cycle;Max_cycle;Signal;HPM_P1;HPM_P2
2023/01/23 00:04:53;;;;;;;4.43;2.67;;;15.50;72.20;;;;;;10449551;28;20132;-25
2023/01/23 00:09:55;;;;;;;;;;;15.50;72.20;;;;;;10444655;28;20178;-27
2023/01/23 00:14:58;;;;;;;4.43;2.35;;;15.40;72.50;;;;;;10424032;28;20268;-27
2023/01/23 00:20:00;;;;;;;3.30;2.25;;;15.40;72.30;;;;;;10428856;28;20353;-24
2023/01/23 00:25:02;;;;;;;2.83;2.47;;;15.40;72.10;;;;;;10428973;28;20045;-28
2023/01/23 00:30:07;;;;;;;5.63;2.23;;;15.40;72.20;;;;;;10434180;28;20041;-27
2023/01/23 00:35:09;;;;;;;6.10;2.50;;;15.40;72.00;;;;;;10430513;28;20492;-26
2023/01/23 00:40:12;;;;;;;2.75;2.00;;;15.40;72.10;;;;;;10434427;28;20086;-24
2023/01/23 00:45:15;;;;;;;5.32;2.33;;;15.40;72.20;;;;;;10442664;28;20091;-27
2023/01/23 00:50:17;;;;;;;3.13;2.10;;;15.40;72.00;;;;;;10445173;28;20460;-25
2023/01/23 00:55:19;;;;;;;2.77;2.20;;;15.40;72.10;;;;;;10445105;28;20099;-25
2023/01/23 01:00:22;;;;;;;2.60;1.90;;;15.40;72.10;;;;;;10444177;28;20136;-25
2023/01/23 01:05:24;;;;;;;3.30;2.05;;;15.30;72.00;;;;;;10443011;28;20095;-25
2023/01/23 01:10:28;;;;;;;3.30;2.23;;;15.30;72.10;;;;;;10440724;28;20399;-26
2023/01/23 01:15:31;;;;;;;5.30;2.55;;;15.30;71.90;;;;;;10447863;28;20480;-25
2023/01/23 01:20:33;;;;;;;3.78;2.20;;;15.30;72.20;;;;;;10455920;28;20033;-25
2023/01/23 01:25:35;;;;;;;4.70;2.27;;;15.20;72.30;;;;;;10450095;28;20041;-25
2023/01/23 01:30:39;;;;;;;3.38;1.92;;;15.20;72.80;;;;;;10437321;28;20128;-26
2023/01/23 01:35:41;;;;;;;3.50;1.98;;;15.30;72.00;;;;;;10436281;28;20056;-26
2023/01/23 01:40:43;;;;;;;1.63;1.47;;;15.20;72.10;;;;;;10451936;28;20047;-24
2023/01/23 01:46:10;;;;;;;6.07;2.10;;;15.20;72.30;;;;;;10440294;28;20506;-25
2023/01/23 01:51:18;;;;;;;4.07;1.60;;;15.30;72.10;;;;;;10449472;28;20068;-25
2023/01/23 01:56:20;;;;;;;2.50;1.83;;;15.20;71.90;;;;;;10454230;28;20079;-24
2023/01/23 02:01:23;;;;;;;2.55;1.50;;;15.20;72.20;;;;;;10443195;28;20453;-25
2023/01/23 02:06:26;;;;;;;7.82;2.05;;;15.20;72.00;;;;;;10437431;28;20075;-30
2023/01/23 02:11:28;;;;;;;2.00;1.52;;;15.20;72.00;;;;;;10455551;28;20139;-26
2023/01/23 02:16:38;;;;;;;2.10;1.50;;;15.20;72.00;;;;;;10437516;28;20044;-25
2023/01/23 02:21:43;;;;;;;3.15;1.83;;;15.10;72.10;;;;;;10448329;28;20517;-25
2023/01/23 02:26:47;;;;;;;3.28;1.80;;;15.10;72.10;;;;;;10445128;28;20076;-25
2023/01/23 02:31:51;;;;;;;2.10;1.50;;;15.10;72.50;;;;;;10435187;28;20128;-25
2023/01/23 02:36:53;;;;;;;3.95;1.50;;;15.10;72.20;;;;;;10448566;28;20079;-25
2023/01/23 02:41:57;;;;;;;2.10;1.63;;;15.10;72.30;;;;;;10445466;28;20128;-25
2023/01/23 02:47:02;;;;;;;2.22;1.50;;;15.10;72.30;;;;;;10437599;28;20049;-24
2023/01/23 02:52:05;;;;;;;2.20;1.63;;;15.00;72.30;;;;;;10440784;28;20040;-25
2023/01/23 02:57:08;;;;;;;3.88;1.95;;;15.00;72.30;;;;;;10440999;28;20466;-25
2023/01/23 03:02:11;;;;;;;4.28;1.80;;;15.00;72.40;;;;;;10440728;28;20739;-25
2023/01/23 03:07:13;;;;;;;3.17;1.40;;;15.00;72.30;;;;;;10435004;28;20123;-24
2023/01/23 03:12:16;;;;;;;2.90;1.73;;;15.00;72.60;;;;;;10442288;28;20059;-24
2023/01/23 03:17:18;;;;;;;2.97;1.58;;;15.00;72.60;;;;;;10445519;28;20048;-24
2023/01/23 03:22:20;;;;;;;2.73;1.60;;;15.00;72.30;;;;;;10451411;28;20038;-25
2023/01/23 03:27:23;;;;;;;1.30;1.20;;;14.90;72.20;;;;;;10448152;28;20080;-24
2023/01/23 03:32:25;;;;;;;2.05;1.40;;;14.90;72.60;;;;;;10438398;28;20080;-24
2023/01/23 03:37:27;;;;;;;1.70;1.35;;;14.90;72.50;;;;;;10449917;28;20085;-25
2023/01/23 03:42:33;;;;;;;1.97;1.37;;;14.90;72.60;;;;;;10458573;28;20041;-25
2023/01/23 03:47:35;;;;;;;2.33;1.40;;;14.90;72.40;;;;;;10461529;28;20147;-25
2023/01/23 03:52:37;;;;;;;3.60;1.60;;;14.90;72.50;;;;;;10441935;28;20040;-25
2023/01/23 03:57:40;;;;;;;1.85;1.35;;;14.90;72.50;;;;;;10450461;28;20041;-29
2023/01/23 04:02:42;;;;;;;2.50;1.70;;;14.90;72.40;;;;;;10453555;28;20072;-25
2023/01/23 04:07:44;;;;;;;1.90;1.30;;;14.80;72.50;;;;;;10451348;28;20147;-26
2023/01/23 04:12:47;;;;;;;2.80;1.30;;;14.80;72.50;;;;;;10458813;28;20175;-26
2023/01/23 04:17:49;;;;;;;1.60;1.08;;;14.90;72.30;;;;;;10447552;28;20140;-25
2023/01/23 04:22:51;;;;;;;1.13;1.00;;;14.80;72.50;;;;;;10465963;28;20076;-25
2023/01/23 04:27:54;;;;;;;1.65;1.25;;;14.80;72.10;;;;;;10459718;28;20103;-26
2023/01/23 04:32:56;;;;;;;1.67;1.27;;;14.80;72.50;;;;;;10462991;28;20568;-24
2023/01/23 04:37:58;;;;;;;4.28;1.48;;;14.80;72.70;;;;;;10451902;28;20114;-24
2023/01/23 04:43:01;;;;;;;2.30;1.37;;;14.80;73.20;;;;;;10443732;28;20068;-25
2023/01/23 04:48:03;;;;;;;2.75;1.33;;;14.80;72.50;;;;;;10446605;28;20135;-25
2023/01/23 04:53:05;;;;;;;3.50;1.60;;;14.80;72.40;;;;;;10455365;28;20045;-25
2023/01/23 04:58:10;;;;;;;5.47;1.50;;;14.80;72.60;;;;;;10457131;28;20131;-25
2023/01/23 05:03:12;;;;;;;1.90;1.30;;;14.70;72.50;;;;;;10460868;28;20362;-24
2023/01/23 05:08:13;;;;;;;2.20;1.30;;;14.80;72.60;;;;;;10439577;28;20075;-26
2023/01/23 05:13:17;;;;;;;1.83;1.10;;;14.80;72.60;;;;;;10444657;28;20044;-25
2023/01/23 05:18:19;;;;;;;1.80;1.40;;;14.70;72.60;;;;;;10466238;28;20048;-26
2023/01/23 05:23:20;;;;;;;2.05;1.35;;;14.70;72.40;;;;;;10444985;28;20568;-26
2023/01/23 05:28:24;;;;;;;3.78;1.60;;;14.80;72.50;;;;;;10433745;28;20449;-23
2023/01/23 05:33:26;;;;;;;4.28;1.40;;;14.80;72.40;;;;;;10435767;28;20136;-25
2023/01/23 05:38:27;;;;;;;1.53;1.10;;;14.80;72.20;;;;;;10431759;28;20168;-24
2023/01/23 05:43:31;;;;;;;2.13;2.00;;;14.90;71.80;;;;;;10426790;28;20072;-25
2023/01/23 05:48:32;;;;;;;2.10;1.20;;;14.90;72.00;;;;;;10426780;28;20045;-25
2023/01/23 05:53:34;;;;;;;5.22;1.23;;;15.00;71.90;;;;;;10428432;28;20453;-27
2023/01/23 05:58:37;;;;;;;2.97;1.60;;;15.00;71.80;;;;;;10436950;28;20178;-25
2023/01/23 06:03:39;;;;;;;1.35;1.20;;;15.10;71.50;;;;;;10446519;28;20064;-25
2023/01/23 06:08:41;;;;;;;7.57;1.23;;;15.10;71.50;;;;;;10418842;28;20049;-25
2023/01/23 06:13:44;;;;;;;2.00;1.23;;;15.00;71.90;;;;;;10428150;28;20560;-27
2023/01/23 06:18:46;;;;;;;2.15;1.20;;;15.10;71.50;;;;;;10438273;28;20479;-25
2023/01/23 06:23:48;;;;;;;1.87;1.17;;;15.10;71.50;;;;;;10434246;28;20076;-27
2023/01/23 06:28:51;;;;;;;2.70;1.10;;;15.10;71.50;;;;;;10433971;28;20080;-22
2023/01/23 06:33:53;;;;;;;1.58;1.48;;;15.20;71.60;;;;;;10437105;28;20102;-26
2023/01/23 06:38:55;;;;;;;2.97;1.40;;;15.20;71.40;;;;;;10438551;28;20071;-25
2023/01/23 06:43:58;;;;;;;3.73;1.40;;;15.20;71.50;;;;;;10439101;28;20503;-25
2023/01/23 06:49:00;;;;;;;3.90;1.33;;;15.20;71.40;;;;;;10439902;28;20068;-28
2023/01/23 06:54:02;;;;;;;2.83;1.20;;;15.30;71.40;;;;;;10427559;28;20132;-25
2023/01/23 06:59:06;;;;;;;3.17;1.50;;;15.30;71.40;;;;;;10440930;28;20068;-25
2023/01/23 07:15:22;;;;;;;3.38;1.75;;;15.40;70.20;;;;;;10538750;27;20838;-25
2023/01/23 07:20:26;;;;;;;5.13;2.45;;;15.30;71.00;;;;;;10523072;28;24875;-23
2023/01/23 07:25:28;;;;;;;3.65;2.03;;;15.40;71.00;;;;;;10520597;28;20048;-25
2023/01/23 07:30:31;;;;;;;5.43;3.07;;;15.40;71.00;;;;;;10521343;28;20507;-26
2023/01/23 07:35:33;;;;;;;8.05;3.67;;;15.30;71.00;;;;;;10510922;28;20510;-26
2023/01/23 07:40:37;;;;;;;5.70;3.30;;;15.30;71.00;;;;;;10531060;28;20080;-26
2023/01/23 07:45:41;;;;;;;7.72;4.35;;;15.30;71.00;;;;;;10530970;28;20098;-25
2023/01/23 07:50:42;;;;;;;10.88;5.30;;;15.30;70.90;;;;;;10515037;28;20044;-25
2023/01/23 07:55:44;;;;;;;15.33;6.83;;;15.40;71.00;;;;;;10521850;28;20049;-28
2023/01/23 08:00:47;;;;;;;8.97;4.90;;;15.30;70.90;;;;;;10531678;28;20139;-21
2023/01/23 08:05:49;;;;;;;15.57;7.05;;;15.40;71.00;;;;;;10512876;28;20511;-27
2023/01/23 08:10:51;;;;;;;13.13;7.43;;;15.40;71.00;;;;;;10518823;28;20468;-25
2023/01/23 08:15:54;;;;;;;9.67;6.03;;;15.40;70.90;;;;;;10516956;28;20808;-24
2023/01/23 08:20:58;;;;;;;15.30;7.60;;;15.30;71.10;;;;;;10520578;28;20056;-26
2023/01/23 08:26:02;;;;;;;12.10;7.10;;;15.30;71.20;;;;;;10501808;28;20044;-25
2023/01/23 08:31:07;;;;;;;16.27;8.00;;;15.40;71.20;;;;;;10492092;28;20464;-25
2023/01/23 08:36:12;;;;;;;15.15;7.60;;;15.30;71.20;;;;;;10502214;28;20041;-23
2023/01/23 08:41:16;;;;;;;15.35;7.72;;;15.30;71.20;;;;;;10487372;28;20060;-25
2023/01/23 08:46:19;;;;;;;20.52;8.40;;;15.30;71.10;;;;;;10486024;28;20048;-24
2023/01/23 08:51:21;;;;;;;17.10;9.02;;;15.30;71.20;;;;;;10500607;28;20455;-26
2023/01/23 08:56:24;;;;;;;19.42;8.70;;;15.30;71.10;;;;;;10484008;28;20044;-24
2023/01/23 09:01:27;;;;;;;16.95;8.68;;;15.40;71.20;;;;;;10493894;28;20072;-24
2023/01/23 09:06:29;;;;;;;16.63;8.95;;;15.30;71.20;;;;;;10495911;28;20527;-25
2023/01/23 09:11:31;;;;;;;20.47;10.60;;;15.30;71.20;;;;;;10488320;28;20570;-25
2023/01/23 09:16:34;;;;;;;22.47;9.63;;;15.30;71.20;;;;;;10493935;28;20060;-23
2023/01/23 09:21:36;;;;;;;12.20;6.00;;;15.30;70.90;;;;;;10499382;28;20102;-25
2023/01/23 09:26:39;;;;;;;8.07;4.27;;;15.30;71.00;;;;;;10491863;28;20091;-25
2023/01/23 09:31:42;;;;;;;3.92;2.22;;;15.30;71.00;;;;;;10479526;28;20060;-24
2023/01/23 09:36:44;;;;;;;4.07;2.05;;;15.30;71.00;;;;;;10499047;28;20455;-26
2023/01/23 09:41:47;;;;;;;11.57;6.47;;;15.30;70.90;;;;;;10487147;28;20048;-23
2023/01/23 09:46:53;;;;;;;17.67;8.20;;;15.30;70.80;;;;;;10483212;28;20565;-24
2023/01/23 09:51:58;;;;;;;16.73;8.02;;;15.30;70.90;;;;;;10497339;28;20143;-25
2023/01/23 09:57:04;;;;;;;11.40;6.25;;;15.30;70.80;;;;;;10483513;28;20136;-26
2023/01/23 10:02:15;;;;;;;17.98;7.47;;;15.30;70.70;;;;;;10481171;28;20106;-26
2023/01/23 10:07:43;;;;;;;14.95;7.68;;;15.30;70.70;;;;;;10484014;28;20076;-23
2023/01/23 10:12:57;;;;;;;15.77;7.97;;;15.30;70.50;;;;;;10451166;28;20088;-25
2023/01/23 10:18:11;;;;;;;16.52;7.50;;;15.30;70.60;;;;;;10498473;28;20153;-26
2023/01/23 10:23:30;;;;;;;16.10;8.18;;;15.30;70.40;;;;;;10485681;28;20056;-27
2023/01/23 10:28:37;;;;;;;15.07;8.43;;;15.30;70.20;;;;;;10480985;28;20041;-27
2023/01/23 10:33:48;;;;;;;13.82;6.45;;;15.30;70.20;;;;;;10502772;28;20091;-27
2023/01/23 10:38:59;;;;;;;17.60;6.85;;;15.30;70.20;;;;;;10492905;28;20070;-24
2023/01/23 10:44:01;;;;;;;14.30;7.05;;;15.30;70.10;;;;;;10486622;28;20048;-29
2023/01/23 10:49:06;;;;;;;13.63;7.28;;;15.30;70.10;;;;;;10485391;28;20048;-27
2023/01/23 10:54:14;;;;;;;13.45;7.55;;;15.40;70.10;;;;;;10488250;28;20051;-26
2023/01/23 10:59:22;;;;;;;12.10;6.10;;;15.30;70.10;;;;;;10481225;28;20052;-25
2023/01/23 11:04:30;;;;;;;14.05;6.45;;;15.30;69.80;;;;;;10476056;28;20076;-25
2023/01/23 11:09:32;;;;;;;11.70;6.75;;;15.40;69.90;;;;;;10486483;28;20577;-24
2023/01/23 11:14:37;;;;;;;12.85;6.70;;;15.40;70.40;;;;;;10486286;28;20173;-25
2023/01/23 11:19:42;;;;;;;13.68;7.32;;;15.40;69.60;;;;;;10487172;28;20048;-26
2023/01/23 11:24:43;;;;;;;9.60;5.85;;;15.40;69.80;;;;;;10493152;28;20539;-25
2023/01/23 11:30:26;;;;;;;10.70;6.10;;;15.40;69.70;;;;;;10484699;28;20084;-25
2023/01/23 11:35:48;;;;;;;11.90;6.72;;;15.40;69.70;;;;;;10471274;28;20048;-25
2023/01/23 11:40:49;;;;;;;11.93;6.38;;;15.40;69.70;;;;;;10488508;28;20045;-24
2023/01/23 11:46:12;;;;;;;11.23;6.20;;;15.40;69.70;;;;;;10486742;28;20106;-25
2023/01/23 11:51:20;;;;;;;11.85;5.90;;;15.40;69.80;;;;;;10487270;28;20037;-26
2023/01/23 11:56:43;;;;;;;13.00;6.68;;;15.40;69.70;;;;;;10487964;28;20528;-25
2023/01/23 12:02:01;;;;;;;12.90;6.45;;;15.40;69.60;;;;;;10498410;28;20075;-25
2023/01/23 12:07:17;;;;;;;11.50;5.68;;;15.50;69.40;;;;;;10493188;28;20610;-24
2023/01/23 12:12:30;;;;;;;9.45;5.28;;;15.50;69.40;;;;;;10487871;28;20056;-25
2023/01/23 12:17:41;;;;;;;8.68;4.72;;;15.50;69.30;;;;;;10490610;28;20052;-26
2023/01/23 12:22:56;;;;;;;9.27;5.20;;;15.50;69.40;;;;;;10494562;28;20079;-27
2023/01/23 12:28:04;;;;;;;8.48;5.07;;;15.50;69.30;;;;;;10493752;28;20131;-26
2023/01/23 12:33:19;;;;;;;10.93;5.10;;;15.50;69.30;;;;;;10484015;28;20746;-25
2023/01/23 12:38:30;;;;;;;9.98;5.07;;;15.50;69.40;;;;;;10479598;28;20056;-27
2023/01/23 12:43:38;;;;;;;10.13;4.50;;;15.50;69.30;;;;;;10492936;28;20094;-25
2023/01/23 12:48:43;;;;;;;9.57;4.10;;;15.50;69.20;;;;;;10485497;28;20080;-26
2023/01/23 12:53:51;;;;;;;6.38;3.63;;;15.50;69.20;;;;;;10490085;28;20056;-29
2023/01/23 12:59:12;;;;;;;8.70;4.53;;;15.60;69.20;;;;;;10493089;28;20106;-26
2023/01/23 13:04:28;;;;;;;8.38;4.63;;;15.50;69.40;;;;;;10484035;28;20045;-26
2023/01/23 13:09:44;;;;;;;8.82;4.40;;;15.50;69.40;;;;;;10487992;28;20048;-25
2023/01/23 13:14:47;;;;;;;7.95;4.35;;;15.60;69.00;;;;;;10478312;28;20056;-25
2023/01/23 13:25:16;;;;;;;11.70;4.75;;;15.60;68.90;;;;;;10504890;28;19924;-25
2023/01/23 13:30:40;;;;;;;8.30;5.32;;;15.50;69.20;;;;;;10487231;28;20045;-25
2023/01/23 13:35:54;;;;;;;8.80;4.75;;;15.50;67.80;;;;;;10494113;28;20072;-26
2023/01/23 13:41:26;;;;;;;8.68;5.15;;;15.40;68.80;;;;;;10500204;28;20139;-25
2023/01/23 13:46:39;;;;;;;9.77;4.85;;;15.70;69.10;;;;;;10483039;28;20044;-24
2023/01/23 13:51:41;;;;;;;9.57;4.88;;;15.70;68.80;;;;;;10489605;28;20675;-26
2023/01/23 13:56:47;;;;;;;9.50;3.90;;;16.30;90.20;;;;;;10487465;28;20054;-25
2023/01/23 14:07:44;;;;;;;10.75;5.80;;;15.70;75.60;;;;;;10482301;28;20480;-26
2023/01/23 14:12:46;;;;;;;8.82;4.18;;;15.90;72.60;;;;;;10483466;28;20102;-26
2023/01/23 14:17:50;;;;;;;15.10;5.80;;;15.90;71.70;;;;;;10493933;28;20088;-24
2023/01/23 14:22:54;;;;;;;10.27;5.50;;;16.10;70.20;;;;;;10485225;28;20485;-22
2023/01/23 14:28:03;;;;;;;14.27;5.50;;;16.40;69.10;;;;;;10485561;28;20086;-25
2023/01/23 14:33:16;;;;;;;15.15;5.03;;;16.60;68.30;;;;;;10489693;28;20050;-25
2023/01/23 14:38:26;;;;;;;9.25;5.05;;;16.80;67.60;;;;;;10487277;28;20036;-26
2023/01/23 14:43:29;;;;;;;15.55;7.13;;;16.90;66.60;;;;;;10477101;28;20064;-25
2023/01/23 14:48:36;;;;;;;11.68;5.53;;;17.10;66.10;;;;;;10488275;28;20102;-25
2023/01/23 14:53:41;;;;;;;13.07;6.70;;;17.10;65.80;;;;;;10478647;28;20056;-26
2023/01/23 14:58:44;;;;;;;15.52;8.27;;;17.20;65.50;;;;;;10488765;28;20123;-25
2023/01/23 15:03:55;;;;;;;;;;;17.30;65.00;;;;;;10488373;28;20048;-26
2023/01/23 15:09:07;;;;;;;14.65;7.10;;;17.30;65.00;;;;;;10480514;28;19921;-26
2023/01/23 15:14:23;;;;;;;14.20;6.93;;;17.40;64.80;;;;;;10486456;28;20114;-25
2023/01/23 15:19:26;;;;;;;11.45;6.35;;;17.50;64.70;;;;;;10484233;28;20040;-25
2023/01/23 15:24:28;;;;;;;15.57;7.25;;;17.50;65.00;;;;;;10496212;28;20127;-25
2023/01/23 15:29:31;;;;;;;11.80;6.65;;;17.60;64.40;;;;;;10495679;28;20489;-24
2023/01/23 15:34:35;;;;;;;20.88;8.25;;;17.50;64.00;;;;;;10489938;28;20534;-24
2023/01/23 15:39:39;;;;;;;16.98;8.13;;;17.70;64.30;;;;;;10497020;28;20043;-26
2023/01/23 15:44:42;;;;;;;15.75;7.75;;;17.70;64.10;;;;;;10486843;28;20048;-25
2023/01/23 15:49:45;;;;;;;17.60;7.63;;;17.70;64.10;;;;;;10492777;28;20390;-28
2023/01/23 15:54:47;;;;;;;16.52;8.38;;;17.70;63.90;;;;;;10489484;28;20473;-25
2023/01/23 15:59:49;;;;;;;14.93;8.05;;;17.80;63.90;;;;;;10492040;28;20044;-25
2023/01/23 16:04:52;;;;;;;16.67;8.20;;;17.80;63.70;;;;;;10491947;28;20128;-26
2023/01/23 16:09:55;;;;;;;9.27;4.35;;;17.60;65.10;;;;;;10492557;28;20064;-24
2023/01/23 16:14:57;;;;;;;12.70;5.88;;;17.80;64.60;;;;;;10486494;28;20143;-26
2023/01/23 16:20:00;;;;;;;12.98;5.70;;;17.90;63.90;;;;;;10491436;28;20488;-25
2023/01/23 16:25:03;;;;;;;15.15;7.45;;;17.90;63.70;;;;;;10500246;28;20066;-29
2023/01/23 16:30:06;;;;;;;14.73;5.95;;;17.90;63.80;;;;;;10488587;28;20386;-24
2023/01/23 16:35:12;;;;;;;10.98;5.68;;;17.80;63.90;;;;;;10488310;28;20048;-26
2023/01/23 16:40:17;;;;;;;13.40;6.22;;;17.90;63.70;;;;;;10493453;28;20066;-25
2023/01/23 16:45:22;;;;;;;12.38;5.97;;;17.90;63.60;;;;;;10486030;28;20049;-24
2023/01/23 16:50:36;;;;;;;10.25;5.03;;;17.90;63.70;;;;;;10488570;28;20040;-26
2023/01/23 16:55:40;;;;;;;6.75;3.63;;;17.90;63.60;;;;;;10488483;28;20145;-25
2023/01/23 17:00:42;;;;;;;7.20;3.75;;;18.00;63.40;;;;;;10481448;28;20780;-25
2023/01/23 17:05:45;;;;;;;;;;;18.00;63.20;;;;;;10484130;28;20074;-26
2023/01/23 17:10:49;;;;;;;13.40;5.25;;;18.00;62.90;;;;;;10500297;28;19931;-26
2023/01/23 17:15:53;;;;;;;13.27;7.72;;;17.50;65.10;;;;;;10488937;28;20118;-29
2023/01/23 17:20:58;;;;;;;13.38;6.07;;;17.20;66.90;;;;;;10491015;28;20106;-27
2023/01/23 17:26:00;;;;;;;14.10;7.18;;;17.70;65.40;;;;;;10493838;28;20468;-25
2023/01/23 17:31:03;;;;;;;12.83;7.30;;;17.70;64.40;;;;;;10489479;28;20072;-25
2023/01/23 17:36:07;;;;;;;11.50;5.97;;;17.70;64.40;;;;;;10488769;28;20493;-25
2023/01/23 17:41:13;;;;;;;12.80;6.38;;;17.70;64.60;;;;;;10483187;28;20053;-25
2023/01/23 17:46:25;;;;;;;14.70;7.72;;;17.60;64.60;;;;;;10487001;28;20104;-25
2023/01/23 17:51:28;;;;;;;16.55;7.72;;;17.50;64.80;;;;;;10484692;28;20049;-26
2023/01/23 17:56:30;;;;;;;13.07;6.72;;;17.50;64.80;;;;;;10486124;28;20521;-25
2023/01/23 18:01:32;;;;;;;14.40;8.32;;;17.50;65.00;;;;;;10488939;28;20052;-26
2023/01/23 18:06:35;;;;;;;14.30;7.47;;;17.40;65.00;;;;;;10484636;28;20076;-26
2023/01/23 18:11:38;;;;;;;18.00;8.20;;;17.40;65.20;;;;;;10488412;28;20536;-27
2023/01/23 18:16:41;;;;;;;18.65;8.38;;;17.40;65.30;;;;;;10492687;28;20056;-26
2023/01/23 18:21:46;;;;;;;15.07;7.05;;;17.40;65.70;;;;;;10491461;28;20049;-26
2023/01/23 18:26:53;;;;;;;15.50;7.43;;;17.50;65.80;;;;;;10484860;28;20571;-26
2023/01/23 18:32:12;;;;;;;16.88;8.38;;;17.00;67.30;;;;;;10486445;28;20037;-24
2023/01/23 18:37:23;;;;;;;20.55;9.10;;;16.80;68.60;;;;;;10488034;28;20606;-25
2023/01/23 18:42:34;;;;;;;17.88;8.27;;;16.50;69.80;;;;;;10481555;28;20036;-26
2023/01/23 18:47:36;;;;;;;24.30;8.65;;;16.20;71.00;;;;;;10482031;28;20500;-25
2023/01/23 18:52:50;;;;;;;15.38;8.35;;;16.20;71.90;;;;;;10484270;28;20109;-25
2023/01/23 18:58:08;;;;;;;17.98;8.02;;;15.80;65.50;;;;;;10479289;28;20139;-25
2023/01/23 19:03:13;;;;;;;14.40;7.43;;;16.00;72.80;;;;;;10480971;28;20063;-24
2023/01/23 19:08:26;;;;;;;14.90;6.78;;;16.10;73.20;;;;;;10485662;28;20215;-26
2023/01/23 19:13:35;;;;;;;11.77;6.43;;;16.30;71.70;;;;;;10481399;28;20138;-24
2023/01/23 19:18:45;;;;;;;13.07;6.30;;;15.70;73.50;;;;;;10481158;28;20129;-26
2023/01/23 19:23:55;;;;;;;9.90;5.35;;;16.10;72.30;;;;;;10491704;28;20152;-25
2023/01/23 19:28:58;;;;;;;10.05;5.55;;;15.80;74.20;;;;;;10483473;28;20127;-25
2023/01/23 19:34:01;;;;;;;7.60;4.72;;;16.10;72.10;;;;;;10488730;28;20087;-27
2023/01/23 19:39:05;;;;;;;13.07;4.43;;;16.20;72.50;;;;;;10494300;28;20045;-27
2023/01/23 19:44:10;;;;;;;10.68;4.88;;;16.00;72.90;;;;;;10482772;28;20040;-25
2023/01/23 19:49:12;;;;;;;11.27;4.82;;;16.30;72.30;;;;;;10481538;28;20096;-27
2023/01/23 19:54:15;;;;;;;10.88;5.55;;;16.30;72.20;;;;;;10482852;28;20049;-25
2023/01/23 19:59:17;;;;;;;9.70;5.20;;;16.30;72.80;;;;;;10486122;28;20079;-26
2023/01/23 20:04:21;;;;;;;11.43;5.80;;;16.30;69.70;;;;;;10488794;28;20134;-26
2023/01/23 20:09:24;;;;;;;14.65;5.05;;;16.20;72.10;;;;;;10486841;28;20560;-25
2023/01/23 20:14:26;;;;;;;8.75;4.60;;;17.00;68.80;;;;;;10487032;28;20142;-26
2023/01/23 20:19:28;;;;;;;8.93;4.87;;;17.10;67.80;;;;;;10486592;28;20048;-26
2023/01/23 20:24:31;;;;;;;12.83;5.67;;;17.20;68.40;;;;;;10502056;28;20068;-25
2023/01/23 20:29:33;;;;;;;9.93;5.00;;;17.30;67.50;;;;;;10495563;28;20045;-26
2023/01/23 20:34:35;;;;;;;8.90;4.23;;;17.20;67.70;;;;;;10489910;28;20562;-26
2023/01/23 20:39:39;;;;;;;9.25;5.03;;;17.30;67.30;;;;;;10495491;28;20458;-26
2023/01/23 20:44:41;;;;;;;13.25;5.25;;;17.30;67.00;;;;;;10486977;28;20143;-26
2023/01/23 20:49:43;;;;;;;10.43;5.57;;;17.30;67.00;;;;;;10491950;28;20139;-25
2023/01/23 20:54:46;;;;;;;10.30;4.80;;;17.30;66.80;;;;;;10495508;28;20526;-25
2023/01/23 20:59:48;;;;;;;9.05;4.32;;;17.20;62.70;;;;;;10489985;28;20487;-25
2023/01/23 21:04:51;;;;;;;8.70;4.88;;;17.20;67.00;;;;;;10484324;28;20082;-25
2023/01/23 21:09:55;;;;;;;10.88;5.65;;;17.30;66.80;;;;;;10489979;28;20149;-25
2023/01/23 21:14:56;;;;;;;10.30;5.72;;;17.30;66.60;;;;;;10482214;28;20713;-25
2023/01/23 21:19:58;;;;;;;15.05;7.10;;;17.40;66.70;;;;;;10484803;28;20075;-25
2023/01/23 21:25:02;;;;;;;10.50;6.03;;;17.30;66.90;;;;;;10487218;28;20139;-24
2023/01/23 21:30:04;;;;;;;12.63;5.30;;;17.30;66.50;;;;;;10490898;28;20489;-25
2023/01/23 21:35:06;;;;;;;12.38;6.93;;;17.30;65.40;;;;;;10491399;28;20052;-27
2023/01/23 21:40:11;;;;;;;10.18;6.28;;;17.40;66.50;;;;;;10489996;28;20574;-25
2023/01/23 21:45:13;;;;;;;14.98;7.90;;;17.00;67.10;;;;;;10490153;28;20056;-23
2023/01/23 21:50:17;;;;;;;14.77;7.90;;;17.20;66.80;;;;;;10495273;28;20448;-25
2023/01/23 21:55:20;;;;;;;14.02;7.55;;;17.10;67.00;;;;;;10490284;28;20052;-24
2023/01/23 22:05:41;;;;;;;14.43;7.75;;;17.10;66.90;;;;;;10491315;28;20056;-25
2023/01/23 22:10:44;;;;;;;16.50;7.77;;;16.90;67.40;;;;;;10490460;28;20076;-25
2023/01/23 22:15:46;;;;;;;14.70;7.70;;;17.00;66.90;;;;;;10498244;28;20047;-27
2023/01/23 22:20:53;;;;;;;17.67;8.83;;;17.00;67.00;;;;;;10491219;28;20128;-26
2023/01/23 22:25:58;;;;;;;18.60;8.98;;;16.90;66.70;;;;;;10486295;28;20121;-26
2023/01/23 22:31:06;;;;;;;20.00;10.10;;;16.90;66.90;;;;;;10491125;28;20040;-26
2023/01/23 22:36:11;;;;;;;17.80;8.52;;;16.90;67.00;;;;;;10492097;28;20507;-26
2023/01/23 22:41:14;;;;;;;23.55;12.15;;;16.80;67.10;;;;;;10486262;28;20056;-27
2023/01/23 22:46:18;;;;;;;21.05;11.60;;;16.90;66.80;;;;;;10466166;28;20059;-25
2023/01/23 22:51:22;;;;;;;20.80;9.75;;;16.80;67.20;;;;;;10483625;28;20098;-25
2023/01/23 22:56:27;;;;;;;16.38;8.75;;;16.60;67.50;;;;;;10488056;28;20485;-25
2023/01/23 23:01:29;;;;;;;20.35;10.80;;;16.90;66.90;;;;;;10493874;28;20155;-26
2023/01/23 23:06:31;;;;;;;21.83;10.07;;;16.70;67.00;;;;;;10484422;28;20053;-25
2023/01/23 23:11:36;;;;;;;15.77;8.85;;;16.80;66.50;;;;;;10484487;28;20808;-25
2023/01/23 23:16:39;;;;;;;15.57;8.60;;;16.80;66.80;;;;;;10508081;28;20397;-26
2023/01/23 23:21:41;;;;;;;18.70;9.50;;;16.90;66.50;;;;;;10490657;28;20048;-26
2023/01/23 23:26:45;;;;;;;21.03;9.97;;;16.60;67.00;;;;;;10493633;28;20040;-26
2023/01/23 23:31:50;;;;;;;17.75;9.95;;;16.60;67.70;;;;;;10488705;28;20567;-26
2023/01/23 23:36:52;;;;;;;22.38;10.00;;;16.70;67.20;;;;;;10490246;28;20067;-26
2023/01/23 23:41:55;;;;;;;13.77;8.47;;;16.70;67.20;;;;;;10488064;28;20082;-26
2023/01/23 23:46:57;;;;;;;21.23;9.75;;;16.60;67.70;;;;;;10487299;28;20128;-32
2023/01/23 23:51:58;;;;;;;22.13;11.50;;;16.60;67.70;;;;;;10485549;28;20044;-26
2023/01/23 23:57:02;;;;;;;18.27;9.37;;;16.50;67.90;;;;;;10493803;28;20049;-26
